sensor_id;sensor_type;location;lat;lon;timestamp;P1;durP1;ratioP1;P2;durP2;ratioP2
16450;SDS011;12243;42.708;23.310;2023-09-19T00:01:39;5.93;;;3.85;;
16450;SDS011;12243;42.708;23.310;2023-09-19T00:04:08;4.67;;;4.10;;
16450;SDS011;12243;42.708;23.310;2023-09-19T00:06:37;6.07;;;3.47;;
16450;SDS011;12243;42.708;23.310;2023-09-19T00:09:04;4.55;;;4.05;;
16450;SDS011;12243;42.708;23.310;2023-09-19T00:11:35;5.37;;;4.00;;
16450;SDS011;12243;42.708;23.310;2023-09-19T00:14:03;4.60;;;4.20;;
16450;SDS011;12243;42.708;23.310;2023-09-19T00:16:34;4.00;;;3.70;;
16450;SDS011;12243;42.708;23.310;2023-09-19T00:19:01;4.20;;;3.83;;
16450;SDS011;12243;42.708;23.310;2023-09-19T00:21:34;4.10;;;3.60;;
16450;SDS011;12243;42.708;23.310;2023-09-19T00:24:03;4.35;;;4.05;;
16450;SDS011;12243;42.708;23.310;2023-09-19T00:26:31;4.37;;;3.90;;
16450;SDS011;12243;42.708;23.310;2023-09-19T00:28:59;4.73;;;4.17;;
16450;SDS011;12243;42.708;23.310;2023-09-19T00:31:30;4.13;;;3.60;;
16450;SDS011;12243;42.708;23.310;2023-09-19T00:33:57;4.30;;;4.00;;
16450;SDS011;12243;42.708;23.310;2023-09-19T00:36:37;4.42;;;4.03;;
16450;SDS011;12243;42.708;23.310;2023-09-19T00:39:05;4.50;;;3.50;;
16450;SDS011;12243;42.708;23.310;2023-09-19T00:41:32;3.87;;;3.63;;
16450;SDS011;12243;42.708;23.310;2023-09-19T00:44:00;6.47;;;4.03;;
16450;SDS011;12243;42.708;23.310;2023-09-19T00:46:29;4.30;;;3.90;;
16450;SDS011;12243;42.708;23.310;2023-09-19T00:48:57;5.07;;;4.67;;
16450;SDS011;12243;42.708;23.310;2023-09-19T00:51:24;5.43;;;4.43;;
16450;SDS011;12243;42.708;23.310;2023-09-19T00:53:54;4.93;;;4.25;;
16450;SDS011;12243;42.708;23.310;2023-09-19T00:56:21;5.07;;;4.53;;
16450;SDS011;12243;42.708;23.310;2023-09-19T00:58:48;5.65;;;4.50;;
16450;SDS011;12243;42.708;23.310;2023-09-19T01:01:15;4.63;;;4.33;;
16450;SDS011;12243;42.708;23.310;2023-09-19T01:03:43;4.60;;;4.30;;
16450;SDS011;12243;42.708;23.310;2023-09-19T01:06:12;5.22;;;4.53;;
16450;SDS011;12243;42.708;23.310;2023-09-19T01:08:39;8.40;;;4.68;;
16450;SDS011;12243;42.708;23.310;2023-09-19T01:11:11;4.93;;;4.37;;
16450;SDS011;12243;42.708;23.310;2023-09-19T01:13:45;7.77;;;4.77;;
16450;SDS011;12243;42.708;23.310;2023-09-19T01:16:19;5.27;;;4.67;;
16450;SDS011;12243;42.708;23.310;2023-09-19T01:18:59;6.13;;;4.43;;
16450;SDS011;12243;42.708;23.310;2023-09-19T01:21:37;6.17;;;4.67;;
16450;SDS011;12243;42.708;23.310;2023-09-19T01:24:31;6.30;;;4.60;;
16450;SDS011;12243;42.708;23.310;2023-09-19T01:27:28;5.33;;;4.87;;
16450;SDS011;12243;42.708;23.310;2023-09-19T01:30:20;5.10;;;4.60;;
16450;SDS011;12243;42.708;23.310;2023-09-19T01:32:52;5.70;;;4.70;;
16450;SDS011;12243;42.708;23.310;2023-09-19T01:35:19;5.60;;;4.60;;
16450;SDS011;12243;42.708;23.310;2023-09-19T01:37:46;6.27;;;5.00;;
16450;SDS011;12243;42.708;23.310;2023-09-19T01:40:14;5.00;;;4.60;;
16450;SDS011;12243;42.708;23.310;2023-09-19T01:42:45;5.20;;;4.72;;
16450;SDS011;12243;42.708;23.310;2023-09-19T01:45:24;5.57;;;5.07;;
16450;SDS011;12243;42.708;23.310;2023-09-19T01:47:58;5.10;;;4.50;;
16450;SDS011;12243;42.708;23.310;2023-09-19T01:50:32;6.65;;;5.22;;
16450;SDS011;12243;42.708;23.310;2023-09-19T01:53:06;5.30;;;4.82;;
16450;SDS011;12243;42.708;23.310;2023-09-19T01:55:41;5.90;;;5.40;;
16450;SDS011;12243;42.708;23.310;2023-09-19T01:58:16;5.20;;;4.90;;
16450;SDS011;12243;42.708;23.310;2023-09-19T02:00:49;6.03;;;5.57;;
16450;SDS011;12243;42.708;23.310;2023-09-19T02:03:18;5.97;;;5.47;;
16450;SDS011;12243;42.708;23.310;2023-09-19T02:05:49;5.95;;;5.45;;
16450;SDS011;12243;42.708;23.310;2023-09-19T02:08:20;6.37;;;5.20;;
16450;SDS011;12243;42.708;23.310;2023-09-19T02:10:49;5.50;;;5.00;;
16450;SDS011;12243;42.708;23.310;2023-09-19T02:13:16;5.90;;;5.27;;
16450;SDS011;12243;42.708;23.310;2023-09-19T02:15:44;5.90;;;5.30;;
16450;SDS011;12243;42.708;23.310;2023-09-19T02:18:13;5.77;;;5.20;;
16450;SDS011;12243;42.708;23.310;2023-09-19T02:20:41;5.83;;;5.33;;
16450;SDS011;12243;42.708;23.310;2023-09-19T02:23:08;6.13;;;5.20;;
16450;SDS011;12243;42.708;23.310;2023-09-19T02:25:36;8.10;;;5.20;;
16450;SDS011;12243;42.708;23.310;2023-09-19T02:28:06;5.67;;;5.03;;
16450;SDS011;12243;42.708;23.310;2023-09-19T02:30:34;5.90;;;5.30;;
16450;SDS011;12243;42.708;23.310;2023-09-19T02:33:02;6.00;;;5.40;;
16450;SDS011;12243;42.708;23.310;2023-09-19T02:35:32;6.00;;;5.50;;
16450;SDS011;12243;42.708;23.310;2023-09-19T02:38:01;5.53;;;4.93;;
16450;SDS011;12243;42.708;23.310;2023-09-19T02:40:31;5.73;;;5.30;;
16450;SDS011;12243;42.708;23.310;2023-09-19T02:43:01;7.90;;;5.20;;
16450;SDS011;12243;42.708;23.310;2023-09-19T02:45:28;8.17;;;5.70;;
16450;SDS011;12243;42.708;23.310;2023-09-19T02:47:56;7.43;;;5.50;;
16450;SDS011;12243;42.708;23.310;2023-09-19T02:50:23;5.87;;;5.37;;
16450;SDS011;12243;42.708;23.310;2023-09-19T02:52:52;6.60;;;5.83;;
16450;SDS011;12243;42.708;23.310;2023-09-19T02:55:19;10.30;;;5.67;;
16450;SDS011;12243;42.708;23.310;2023-09-19T02:57:47;8.30;;;5.00;;
16450;SDS011;12243;42.708;23.310;2023-09-19T03:00:16;7.37;;;5.67;;
16450;SDS011;12243;42.708;23.310;2023-09-19T03:02:46;8.10;;;5.60;;
16450;SDS011;12243;42.708;23.310;2023-09-19T03:05:14;6.03;;;5.53;;
16450;SDS011;12243;42.708;23.310;2023-09-19T03:07:41;6.20;;;5.40;;
16450;SDS011;12243;42.708;23.310;2023-09-19T03:10:12;6.60;;;5.90;;
16450;SDS011;12243;42.708;23.310;2023-09-19T03:12:40;5.77;;;5.17;;
16450;SDS011;12243;42.708;23.310;2023-09-19T03:15:08;5.73;;;5.20;;
16450;SDS011;12243;42.708;23.310;2023-09-19T03:17:35;5.87;;;5.30;;
16450;SDS011;12243;42.708;23.310;2023-09-19T03:20:02;7.93;;;5.73;;
16450;SDS011;12243;42.708;23.310;2023-09-19T03:22:33;7.90;;;5.90;;
16450;SDS011;12243;42.708;23.310;2023-09-19T03:25:00;7.17;;;5.83;;
16450;SDS011;12243;42.708;23.310;2023-09-19T03:27:28;6.50;;;5.77;;
16450;SDS011;12243;42.708;23.310;2023-09-19T03:29:56;8.00;;;5.60;;
16450;SDS011;12243;42.708;23.310;2023-09-19T03:32:23;6.93;;;5.80;;
16450;SDS011;12243;42.708;23.310;2023-09-19T03:34:50;8.67;;;6.30;;
16450;SDS011;12243;42.708;23.310;2023-09-19T03:37:18;6.23;;;5.63;;
16450;SDS011;12243;42.708;23.310;2023-09-19T03:39:45;7.00;;;6.30;;
16450;SDS011;12243;42.708;23.310;2023-09-19T03:42:12;7.10;;;5.67;;
16450;SDS011;12243;42.708;23.310;2023-09-19T03:44:40;6.57;;;5.67;;
16450;SDS011;12243;42.708;23.310;2023-09-19T03:47:07;6.03;;;5.43;;
16450;SDS011;12243;42.708;23.310;2023-09-19T03:49:34;6.90;;;6.07;;
16450;SDS011;12243;42.708;23.310;2023-09-19T03:52:02;7.60;;;5.43;;
16450;SDS011;12243;42.708;23.310;2023-09-19T03:54:30;5.93;;;5.20;;
16450;SDS011;12243;42.708;23.310;2023-09-19T03:56:57;6.37;;;5.77;;
16450;SDS011;12243;42.708;23.310;2023-09-19T03:59:24;8.27;;;5.40;;
16450;SDS011;12243;42.708;23.310;2023-09-19T04:01:52;5.83;;;5.40;;
16450;SDS011;12243;42.708;23.310;2023-09-19T04:04:22;5.60;;;5.00;;
16450;SDS011;12243;42.708;23.310;2023-09-19T04:06:50;6.00;;;5.50;;
16450;SDS011;12243;42.708;23.310;2023-09-19T04:09:17;6.37;;;5.73;;
16450;SDS011;12243;42.708;23.310;2023-09-19T04:11:44;7.67;;;5.53;;
16450;SDS011;12243;42.708;23.310;2023-09-19T04:14:11;6.03;;;5.43;;
16450;SDS011;12243;42.708;23.310;2023-09-19T04:16:38;7.90;;;5.80;;
16450;SDS011;12243;42.708;23.310;2023-09-19T04:19:06;7.70;;;5.87;;
16450;SDS011;12243;42.708;23.310;2023-09-19T04:21:33;7.10;;;6.50;;
16450;SDS011;12243;42.708;23.310;2023-09-19T04:24:00;6.73;;;6.13;;
16450;SDS011;12243;42.708;23.310;2023-09-19T04:26:28;7.43;;;6.50;;
16450;SDS011;12243;42.708;23.310;2023-09-19T04:28:55;8.47;;;6.37;;
16450;SDS011;12243;42.708;23.310;2023-09-19T04:31:22;8.17;;;6.37;;
16450;SDS011;12243;42.708;23.310;2023-09-19T04:33:49;9.43;;;7.10;;
16450;SDS011;12243;42.708;23.310;2023-09-19T04:36:18;8.47;;;7.67;;
16450;SDS011;12243;42.708;23.310;2023-09-19T04:38:47;8.27;;;6.77;;
16450;SDS011;12243;42.708;23.310;2023-09-19T04:41:15;7.80;;;6.93;;
16450;SDS011;12243;42.708;23.310;2023-09-19T04:43:42;6.70;;;6.13;;
16450;SDS011;12243;42.708;23.310;2023-09-19T04:46:09;10.77;;;6.73;;
16450;SDS011;12243;42.708;23.310;2023-09-19T04:48:38;7.87;;;6.30;;
16450;SDS011;12243;42.708;23.310;2023-09-19T04:51:05;6.05;;;5.38;;
16450;SDS011;12243;42.708;23.310;2023-09-19T04:53:33;5.50;;;4.93;;
16450;SDS011;12243;42.708;23.310;2023-09-19T04:56:00;7.57;;;5.87;;
16450;SDS011;12243;42.708;23.310;2023-09-19T04:58:29;6.43;;;5.67;;
16450;SDS011;12243;42.708;23.310;2023-09-19T05:00:56;6.63;;;5.87;;
16450;SDS011;12243;42.708;23.310;2023-09-19T05:03:23;6.72;;;6.07;;
16450;SDS011;12243;42.708;23.310;2023-09-19T05:05:50;6.80;;;6.10;;
16450;SDS011;12243;42.708;23.310;2023-09-19T05:08:17;6.40;;;5.80;;
16450;SDS011;12243;42.708;23.310;2023-09-19T05:10:45;6.28;;;5.78;;
16450;SDS011;12243;42.708;23.310;2023-09-19T05:13:11;7.78;;;5.72;;
16450;SDS011;12243;42.708;23.310;2023-09-19T05:15:38;6.57;;;5.38;;
16450;SDS011;12243;42.708;23.310;2023-09-19T05:18:05;10.25;;;5.30;;
16450;SDS011;12243;42.708;23.310;2023-09-19T05:20:32;7.65;;;5.68;;
16450;SDS011;12243;42.708;23.310;2023-09-19T05:23:01;5.60;;;5.10;;
16450;SDS011;12243;42.708;23.310;2023-09-19T05:25:31;4.90;;;4.38;;
16450;SDS011;12243;42.708;23.310;2023-09-19T05:28:04;6.45;;;5.32;;
16450;SDS011;12243;42.708;23.310;2023-09-19T05:30:32;7.07;;;4.82;;
16450;SDS011;12243;42.708;23.310;2023-09-19T05:33:01;6.00;;;5.40;;
16450;SDS011;12243;42.708;23.310;2023-09-19T05:35:29;5.00;;;4.60;;
16450;SDS011;12243;42.708;23.310;2023-09-19T05:37:57;6.00;;;4.75;;
16450;SDS011;12243;42.708;23.310;2023-09-19T05:40:25;5.20;;;4.70;;
16450;SDS011;12243;42.708;23.310;2023-09-19T05:42:52;5.88;;;5.05;;
16450;SDS011;12243;42.708;23.310;2023-09-19T05:45:20;5.05;;;4.65;;
16450;SDS011;12243;42.708;23.310;2023-09-19T05:47:48;5.45;;;4.25;;
16450;SDS011;12243;42.708;23.310;2023-09-19T05:50:16;7.03;;;4.45;;
16450;SDS011;12243;42.708;23.310;2023-09-19T05:52:51;5.00;;;4.50;;
16450;SDS011;12243;42.708;23.310;2023-09-19T05:55:18;4.75;;;4.20;;
16450;SDS011;12243;42.708;23.310;2023-09-19T05:57:49;5.78;;;4.35;;
16450;SDS011;12243;42.708;23.310;2023-09-19T06:00:16;4.10;;;3.80;;
16450;SDS011;12243;42.708;23.310;2023-09-19T06:02:45;4.50;;;4.10;;
16450;SDS011;12243;42.708;23.310;2023-09-19T06:05:17;4.65;;;3.90;;
16450;SDS011;12243;42.708;23.310;2023-09-19T06:07:44;4.22;;;3.92;;
16450;SDS011;12243;42.708;23.310;2023-09-19T06:10:11;4.47;;;4.07;;
16450;SDS011;12243;42.708;23.310;2023-09-19T06:12:38;5.15;;;3.63;;
16450;SDS011;12243;42.708;23.310;2023-09-19T06:15:05;3.80;;;3.50;;
16450;SDS011;12243;42.708;23.310;2023-09-19T06:17:34;4.00;;;3.70;;
16450;SDS011;12243;42.708;23.310;2023-09-19T06:20:05;3.88;;;3.55;;
16450;SDS011;12243;42.708;23.310;2023-09-19T06:22:38;4.60;;;4.20;;
16450;SDS011;12243;42.708;23.310;2023-09-19T06:25:06;4.63;;;3.42;;
16450;SDS011;12243;42.708;23.310;2023-09-19T06:27:36;3.67;;;3.45;;
16450;SDS011;12243;42.708;23.310;2023-09-19T06:30:05;4.03;;;3.72;;
16450;SDS011;12243;42.708;23.310;2023-09-19T06:32:33;4.03;;;3.72;;
16450;SDS011;12243;42.708;23.310;2023-09-19T06:35:00;4.70;;;4.30;;
16450;SDS011;12243;42.708;23.310;2023-09-19T06:37:29;4.10;;;3.80;;
16450;SDS011;12243;42.708;23.310;2023-09-19T06:39:56;4.47;;;3.85;;
16450;SDS011;12243;42.708;23.310;2023-09-19T06:42:23;4.72;;;4.32;;
16450;SDS011;12243;42.708;23.310;2023-09-19T06:44:50;4.50;;;4.15;;
16450;SDS011;12243;42.708;23.310;2023-09-19T06:47:18;5.18;;;4.07;;
16450;SDS011;12243;42.708;23.310;2023-09-19T06:49:45;7.72;;;4.22;;
16450;SDS011;12243;42.708;23.310;2023-09-19T06:52:13;4.20;;;3.85;;
16450;SDS011;12243;42.708;23.310;2023-09-19T06:54:41;5.18;;;4.05;;
16450;SDS011;12243;42.708;23.310;2023-09-19T06:57:08;6.20;;;3.88;;
16450;SDS011;12243;42.708;23.310;2023-09-19T06:59:35;6.80;;;4.32;;
16450;SDS011;12243;42.708;23.310;2023-09-19T07:02:02;6.97;;;4.22;;
16450;SDS011;12243;42.708;23.310;2023-09-19T07:04:31;4.93;;;4.30;;
16450;SDS011;12243;42.708;23.310;2023-09-19T07:06:58;4.50;;;4.10;;
16450;SDS011;12243;42.708;23.310;2023-09-19T07:09:25;4.00;;;3.60;;
16450;SDS011;12243;42.708;23.310;2023-09-19T07:11:54;4.00;;;3.70;;
16450;SDS011;12243;42.708;23.310;2023-09-19T07:14:21;7.95;;;3.72;;
16450;SDS011;12243;42.708;23.310;2023-09-19T07:16:48;6.53;;;4.55;;
16450;SDS011;12243;42.708;23.310;2023-09-19T07:19:15;3.92;;;3.63;;
16450;SDS011;12243;42.708;23.310;2023-09-19T07:21:42;4.70;;;4.30;;
16450;SDS011;12243;42.708;23.310;2023-09-19T07:24:12;4.90;;;4.35;;
16450;SDS011;12243;42.708;23.310;2023-09-19T07:26:39;5.15;;;4.47;;
16450;SDS011;12243;42.708;23.310;2023-09-19T07:29:08;4.85;;;4.20;;
16450;SDS011;12243;42.708;23.310;2023-09-19T07:31:34;5.00;;;4.30;;
16450;SDS011;12243;42.708;23.310;2023-09-19T07:34:01;5.85;;;4.57;;
16450;SDS011;12243;42.708;23.310;2023-09-19T07:36:29;6.55;;;4.85;;
16450;SDS011;12243;42.708;23.310;2023-09-19T07:38:56;4.78;;;4.38;;
16450;SDS011;12243;42.708;23.310;2023-09-19T07:41:23;4.93;;;4.53;;
16450;SDS011;12243;42.708;23.310;2023-09-19T07:43:50;5.85;;;4.70;;
16450;SDS011;12243;42.708;23.310;2023-09-19T07:46:19;4.28;;;3.88;;
16450;SDS011;12243;42.708;23.310;2023-09-19T07:48:46;7.90;;;3.78;;
16450;SDS011;12243;42.708;23.310;2023-09-19T07:51:14;7.60;;;4.03;;
16450;SDS011;12243;42.708;23.310;2023-09-19T07:53:41;4.05;;;3.67;;
16450;SDS011;12243;42.708;23.310;2023-09-19T07:56:08;4.72;;;4.32;;
16450;SDS011;12243;42.708;23.310;2023-09-19T07:58:39;4.25;;;3.63;;
16450;SDS011;12243;42.708;23.310;2023-09-19T08:01:09;4.50;;;4.20;;
16450;SDS011;12243;42.708;23.310;2023-09-19T08:03:40;4.53;;;3.85;;
16450;SDS011;12243;42.708;23.310;2023-09-19T08:06:08;3.72;;;3.45;;
16450;SDS011;12243;42.708;23.310;2023-09-19T08:08:35;5.28;;;3.97;;
16450;SDS011;12243;42.708;23.310;2023-09-19T08:11:03;5.93;;;4.38;;
16450;SDS011;12243;42.708;23.310;2023-09-19T08:13:36;4.22;;;3.88;;
16450;SDS011;12243;42.708;23.310;2023-09-19T08:16:08;6.07;;;4.00;;
16450;SDS011;12243;42.708;23.310;2023-09-19T08:18:36;5.28;;;4.22;;
16450;SDS011;12243;42.708;23.310;2023-09-19T08:21:06;4.50;;;3.97;;
16450;SDS011;12243;42.708;23.310;2023-09-19T08:23:36;6.25;;;4.88;;
16450;SDS011;12243;42.708;23.310;2023-09-19T08:26:03;4.57;;;3.80;;
16450;SDS011;12243;42.708;23.310;2023-09-19T08:28:33;7.07;;;4.63;;
16450;SDS011;12243;42.708;23.310;2023-09-19T08:31:01;4.88;;;4.47;;
16450;SDS011;12243;42.708;23.310;2023-09-19T08:33:30;4.22;;;4.00;;
16450;SDS011;12243;42.708;23.310;2023-09-19T08:36:00;4.25;;;3.95;;
16450;SDS011;12243;42.708;23.310;2023-09-19T08:38:31;4.82;;;4.43;;
16450;SDS011;12243;42.708;23.310;2023-09-19T08:40:58;5.20;;;4.68;;
16450;SDS011;12243;42.708;23.310;2023-09-19T08:43:26;4.97;;;4.57;;
16450;SDS011;12243;42.708;23.310;2023-09-19T08:45:55;4.65;;;4.28;;
16450;SDS011;12243;42.708;23.310;2023-09-19T08:48:25;5.32;;;3.95;;
16450;SDS011;12243;42.708;23.310;2023-09-19T08:50:55;5.18;;;4.57;;
16450;SDS011;12243;42.708;23.310;2023-09-19T08:53:31;12.60;;;4.95;;
16450;SDS011;12243;42.708;23.310;2023-09-19T08:56:08;12.25;;;4.43;;
16450;SDS011;12243;42.708;23.310;2023-09-19T08:58:39;4.32;;;4.03;;
16450;SDS011;12243;42.708;23.310;2023-09-19T09:01:12;8.68;;;4.97;;
16450;SDS011;12243;42.708;23.310;2023-09-19T09:03:41;12.70;;;4.95;;
16450;SDS011;12243;42.708;23.310;2023-09-19T09:06:13;6.60;;;4.38;;
16450;SDS011;12243;42.708;23.310;2023-09-19T09:08:43;6.63;;;4.43;;
16450;SDS011;12243;42.708;23.310;2023-09-19T09:11:11;5.20;;;3.85;;
16450;SDS011;12243;42.708;23.310;2023-09-19T09:13:39;4.97;;;4.50;;
16450;SDS011;12243;42.708;23.310;2023-09-19T09:16:06;5.10;;;4.47;;
16450;SDS011;12243;42.708;23.310;2023-09-19T09:18:35;7.00;;;5.35;;
16450;SDS011;12243;42.708;23.310;2023-09-19T09:21:02;6.63;;;6.03;;
16450;SDS011;12243;42.708;23.310;2023-09-19T09:23:30;9.52;;;5.85;;
16450;SDS011;12243;42.708;23.310;2023-09-19T09:25:59;4.68;;;4.25;;
16450;SDS011;12243;42.708;23.310;2023-09-19T09:28:29;4.72;;;4.32;;
16450;SDS011;12243;42.708;23.310;2023-09-19T09:30:58;4.45;;;4.10;;
16450;SDS011;12243;42.708;23.310;2023-09-19T09:33:27;4.75;;;4.32;;
16450;SDS011;12243;42.708;23.310;2023-09-19T09:35:55;6.88;;;4.60;;
16450;SDS011;12243;42.708;23.310;2023-09-19T09:38:25;6.90;;;4.35;;
16450;SDS011;12243;42.708;23.310;2023-09-19T09:40:54;7.63;;;4.40;;
16450;SDS011;12243;42.708;23.310;2023-09-19T09:43:32;5.75;;;4.18;;
16450;SDS011;12243;42.708;23.310;2023-09-19T09:46:10;4.55;;;4.15;;
16450;SDS011;12243;42.708;23.310;2023-09-19T09:48:57;6.45;;;4.90;;
16450;SDS011;12243;42.708;23.310;2023-09-19T09:51:41;6.32;;;4.72;;
16450;SDS011;12243;42.708;23.310;2023-09-19T09:54:13;5.32;;;4.43;;
16450;SDS011;12243;42.708;23.310;2023-09-19T09:56:53;6.00;;;4.97;;
16450;SDS011;12243;42.708;23.310;2023-09-19T10:02:15;9.35;;;4.00;;
16450;SDS011;12243;42.708;23.310;2023-09-19T10:04:49;7.55;;;4.45;;
16450;SDS011;12243;42.708;23.310;2023-09-19T10:07:25;6.20;;;4.90;;
16450;SDS011;12243;42.708;23.310;2023-09-19T10:09:56;4.97;;;4.50;;
16450;SDS011;12243;42.708;23.310;2023-09-19T10:12:29;6.53;;;5.07;;
16450;SDS011;12243;42.708;23.310;2023-09-19T10:14:59;11.07;;;4.85;;
16450;SDS011;12243;42.708;23.310;2023-09-19T10:17:29;4.78;;;4.38;;
16450;SDS011;12243;42.708;23.310;2023-09-19T10:20:00;4.88;;;4.57;;
16450;SDS011;12243;42.708;23.310;2023-09-19T10:22:34;5.55;;;4.60;;
16450;SDS011;12243;42.708;23.310;2023-09-19T10:25:04;4.03;;;3.70;;
16450;SDS011;12243;42.708;23.310;2023-09-19T10:27:32;4.22;;;3.88;;
16450;SDS011;12243;42.708;23.310;2023-09-19T10:30:05;4.30;;;3.90;;
16450;SDS011;12243;42.708;23.310;2023-09-19T10:32:34;5.03;;;4.30;;
16450;SDS011;12243;42.708;23.310;2023-09-19T10:35:06;4.40;;;4.00;;
16450;SDS011;12243;42.708;23.310;2023-09-19T10:37:34;4.35;;;4.05;;
16450;SDS011;12243;42.708;23.310;2023-09-19T10:40:04;5.18;;;3.83;;
16450;SDS011;12243;42.708;23.310;2023-09-19T10:42:37;5.63;;;4.25;;
16450;SDS011;12243;42.708;23.310;2023-09-19T10:45:09;6.68;;;5.82;;
16450;SDS011;12243;42.708;23.310;2023-09-19T10:47:38;6.80;;;4.30;;
16450;SDS011;12243;42.708;23.310;2023-09-19T10:50:05;4.80;;;4.40;;
16450;SDS011;12243;42.708;23.310;2023-09-19T10:52:39;3.95;;;3.75;;
16450;SDS011;12243;42.708;23.310;2023-09-19T10:55:13;4.38;;;4.00;;
16450;SDS011;12243;42.708;23.310;2023-09-19T10:57:44;5.85;;;3.97;;
16450;SDS011;12243;42.708;23.310;2023-09-19T11:00:13;4.10;;;3.80;;
16450;SDS011;12243;42.708;23.310;2023-09-19T11:06:01;5.35;;;4.13;;
16450;SDS011;12243;42.708;23.310;2023-09-19T11:08:57;4.07;;;3.78;;
16450;SDS011;12243;42.708;23.310;2023-09-19T11:11:51;4.57;;;4.03;;
16450;SDS011;12243;42.708;23.310;2023-09-19T11:14:29;4.35;;;4.03;;
16450;SDS011;12243;42.708;23.310;2023-09-19T11:20:21;4.80;;;4.30;;
16450;SDS011;12243;42.708;23.310;2023-09-19T11:23:21;4.78;;;4.38;;
16450;SDS011;12243;42.708;23.310;2023-09-19T11:25:54;6.07;;;4.68;;
16450;SDS011;12243;42.708;23.310;2023-09-19T11:28:30;4.53;;;4.20;;
16450;SDS011;12243;42.708;23.310;2023-09-19T11:30:57;4.45;;;4.07;;
16450;SDS011;12243;42.708;23.310;2023-09-19T11:33:27;3.92;;;3.72;;
16450;SDS011;12243;42.708;23.310;2023-09-19T11:36:00;4.93;;;4.30;;
16450;SDS011;12243;42.708;23.310;2023-09-19T11:41:40;6.05;;;4.00;;
16450;SDS011;12243;42.708;23.310;2023-09-19T11:46:59;4.90;;;4.28;;
16450;SDS011;12243;42.708;23.310;2023-09-19T11:49:30;6.20;;;4.50;;
16450;SDS011;12243;42.708;23.310;2023-09-19T11:51:59;5.93;;;4.60;;
16450;SDS011;12243;42.708;23.310;2023-09-19T11:54:33;6.47;;;5.50;;
16450;SDS011;12243;42.708;23.310;2023-09-19T11:57:05;5.20;;;4.13;;
16450;SDS011;12243;42.708;23.310;2023-09-19T11:59:32;5.53;;;4.80;;
16450;SDS011;12243;42.708;23.310;2023-09-19T12:02:00;4.78;;;4.43;;
16450;SDS011;12243;42.708;23.310;2023-09-19T12:04:35;4.75;;;4.45;;
16450;SDS011;12243;42.708;23.310;2023-09-19T12:07:04;4.82;;;4.32;;
16450;SDS011;12243;42.708;23.310;2023-09-19T12:09:36;4.40;;;4.10;;
16450;SDS011;12243;42.708;23.310;2023-09-19T12:12:06;6.00;;;4.40;;
16450;SDS011;12243;42.708;23.310;2023-09-19T12:14:34;4.78;;;4.32;;
16450;SDS011;12243;42.708;23.310;2023-09-19T12:17:01;8.50;;;5.05;;
16450;SDS011;12243;42.708;23.310;2023-09-19T12:19:28;7.03;;;4.90;;
16450;SDS011;12243;42.708;23.310;2023-09-19T12:21:57;5.20;;;4.45;;
16450;SDS011;12243;42.708;23.310;2023-09-19T12:24:29;6.07;;;4.70;;
16450;SDS011;12243;42.708;23.310;2023-09-19T12:27:06;4.56;;;4.01;;
16450;SDS011;12243;42.708;23.310;2023-09-19T12:29:43;4.78;;;4.40;;
16450;SDS011;12243;42.708;23.310;2023-09-19T12:32:11;4.38;;;4.05;;
16450;SDS011;12243;42.708;23.310;2023-09-19T12:34:42;6.25;;;5.13;;
16450;SDS011;12243;42.708;23.310;2023-09-19T12:37:11;6.07;;;4.60;;
16450;SDS011;12243;42.708;23.310;2023-09-19T12:39:41;7.72;;;5.03;;
16450;SDS011;12243;42.708;23.310;2023-09-19T12:42:10;4.70;;;4.40;;
16450;SDS011;12243;42.708;23.310;2023-09-19T12:44:40;6.32;;;4.63;;
16450;SDS011;12243;42.708;23.310;2023-09-19T12:47:10;5.38;;;4.90;;
16450;SDS011;12243;42.708;23.310;2023-09-19T12:52:43;5.93;;;4.65;;
16450;SDS011;12243;42.708;23.310;2023-09-19T12:55:22;5.15;;;4.78;;
16450;SDS011;12243;42.708;23.310;2023-09-19T12:58:01;5.60;;;5.10;;
16450;SDS011;12243;42.708;23.310;2023-09-19T13:00:36;5.45;;;4.80;;
16450;SDS011;12243;42.708;23.310;2023-09-19T13:03:17;7.00;;;5.10;;
16450;SDS011;12243;42.708;23.310;2023-09-19T13:05:53;7.05;;;5.03;;
16450;SDS011;12243;42.708;23.310;2023-09-19T13:08:27;4.50;;;4.10;;
16450;SDS011;12243;42.708;23.310;2023-09-19T13:11:01;5.45;;;4.82;;
16450;SDS011;12243;42.708;23.310;2023-09-19T13:13:29;7.57;;;4.90;;
16450;SDS011;12243;42.708;23.310;2023-09-19T13:15:56;5.43;;;5.00;;
16450;SDS011;12243;42.708;23.310;2023-09-19T13:18:23;9.75;;;4.57;;
16450;SDS011;12243;42.708;23.310;2023-09-19T13:21:07;6.72;;;4.63;;
16450;SDS011;12243;42.708;23.310;2023-09-19T13:23:42;5.32;;;5.03;;
16450;SDS011;12243;42.708;23.310;2023-09-19T13:26:09;5.03;;;4.13;;
16450;SDS011;12243;42.708;23.310;2023-09-19T13:28:37;6.05;;;4.88;;
16450;SDS011;12243;42.708;23.310;2023-09-19T13:31:04;5.93;;;4.57;;
16450;SDS011;12243;42.708;23.310;2023-09-19T13:33:33;8.27;;;4.50;;
16450;SDS011;12243;42.708;23.310;2023-09-19T13:36:01;5.35;;;4.55;;
16450;SDS011;12243;42.708;23.310;2023-09-19T13:38:28;4.85;;;4.43;;
16450;SDS011;12243;42.708;23.310;2023-09-19T13:40:56;5.05;;;4.53;;
16450;SDS011;12243;42.708;23.310;2023-09-19T13:43:24;7.07;;;4.85;;
16450;SDS011;12243;42.708;23.310;2023-09-19T13:45:51;5.14;;;4.64;;
16450;SDS011;12243;42.708;23.310;2023-09-19T13:48:18;5.43;;;4.93;;
16450;SDS011;12243;42.708;23.310;2023-09-19T13:50:47;5.55;;;5.15;;
16450;SDS011;12243;42.708;23.310;2023-09-19T13:53:15;7.85;;;5.40;;
16450;SDS011;12243;42.708;23.310;2023-09-19T13:55:43;7.25;;;4.63;;
16450;SDS011;12243;42.708;23.310;2023-09-19T13:58:11;5.22;;;4.80;;
16450;SDS011;12243;42.708;23.310;2023-09-19T14:00:38;5.28;;;4.80;;
16450;SDS011;12243;42.708;23.310;2023-09-19T14:03:05;6.50;;;4.65;;
16450;SDS011;12243;42.708;23.310;2023-09-19T14:05:32;4.55;;;4.22;;
16450;SDS011;12243;42.708;23.310;2023-09-19T14:07:59;5.50;;;5.00;;
16450;SDS011;12243;42.708;23.310;2023-09-19T14:10:26;6.10;;;5.32;;
16450;SDS011;12243;42.708;23.310;2023-09-19T14:12:55;5.63;;;5.13;;
16450;SDS011;12243;42.708;23.310;2023-09-19T14:15:24;6.68;;;5.28;;
16450;SDS011;12243;42.708;23.310;2023-09-19T14:17:55;10.82;;;4.97;;
16450;SDS011;12243;42.708;23.310;2023-09-19T14:20:25;7.80;;;4.88;;
16450;SDS011;12243;42.708;23.310;2023-09-19T14:22:53;5.32;;;4.93;;
16450;SDS011;12243;42.708;23.310;2023-09-19T14:25:20;5.32;;;4.93;;
16450;SDS011;12243;42.708;23.310;2023-09-19T14:27:47;5.00;;;4.55;;
16450;SDS011;12243;42.708;23.310;2023-09-19T14:30:14;5.35;;;4.95;;
16450;SDS011;12243;42.708;23.310;2023-09-19T14:32:42;5.30;;;4.82;;
16450;SDS011;12243;42.708;23.310;2023-09-19T14:35:09;5.30;;;4.82;;
16450;SDS011;12243;42.708;23.310;2023-09-19T14:37:39;4.90;;;4.40;;
16450;SDS011;12243;42.708;23.310;2023-09-19T14:40:06;5.43;;;4.93;;
16450;SDS011;12243;42.708;23.310;2023-09-19T14:42:35;5.47;;;5.07;;
16450;SDS011;12243;42.708;23.310;2023-09-19T14:45:05;5.28;;;4.88;;
16450;SDS011;12243;42.708;23.310;2023-09-19T14:47:32;5.45;;;4.95;;
16450;SDS011;12243;42.708;23.310;2023-09-19T14:50:01;6.00;;;5.13;;
16450;SDS011;12243;42.708;23.310;2023-09-19T14:52:31;5.70;;;5.30;;
16450;SDS011;12243;42.708;23.310;2023-09-19T14:54:59;5.15;;;4.70;;
16450;SDS011;12243;42.708;23.310;2023-09-19T14:57:27;6.53;;;4.82;;
16450;SDS011;12243;42.708;23.310;2023-09-19T14:59:54;6.13;;;5.15;;
16450;SDS011;12243;42.708;23.310;2023-09-19T15:02:21;6.10;;;5.53;;
16450;SDS011;12243;42.708;23.310;2023-09-19T15:04:48;5.88;;;4.97;;
16450;SDS011;12243;42.708;23.310;2023-09-19T15:07:17;5.47;;;4.97;;